createdAt,value
2019-03-25T00:01:29.727Z,51.26
2019-03-25T00:04:00.179Z,50.60
2019-03-25T00:06:29.763Z,51.20
2019-03-25T00:09:05.326Z,51.53
2019-03-25T00:11:30.651Z,50.97
2019-03-25T00:14:00.289Z,51.01
2019-03-25T00:16:29.836Z,51.73
2019-03-25T00:18:59.479Z,51.38
2019-03-25T00:21:29.009Z,51.01
2019-03-25T00:23:58.559Z,50.09
2019-03-25T00:26:28.156Z,49.82
2019-03-25T00:28:57.730Z,49.53
2019-03-25T00:31:27.172Z,49.54
2019-03-25T00:33:56.682Z,49.68
2019-03-25T00:36:47.008Z,49.92
2019-03-25T00:39:16.548Z,49.91
2019-03-25T00:41:45.995Z,50.53
2019-03-25T00:44:15.644Z,50.69
2019-03-25T00:46:45.138Z,50.42
2019-03-25T00:49:14.744Z,49.94
2019-03-25T00:51:44.360Z,48.20
2019-03-25T00:54:14.172Z,48.15
2019-03-25T00:56:43.638Z,48.36
2019-03-25T00:59:13.549Z,48.66
2019-03-25T01:01:43.207Z,48.20
2019-03-25T01:04:13.052Z,48.18
2019-03-25T01:06:42.670Z,48.29
2019-03-25T01:09:12.607Z,48.61
2019-03-25T01:11:49.137Z,49.03
2019-03-25T01:14:13.943Z,49.35
2019-03-25T01:16:43.392Z,49.55
2019-03-25T01:19:12.984Z,49.97
2019-03-25T01:21:42.808Z,50.62
2019-03-25T01:24:12.416Z,50.07
2019-03-25T01:26:41.939Z,50.34
2019-03-25T01:29:51.440Z,50.37
2019-03-25T01:32:20.889Z,50.80
2019-03-25T01:34:52.416Z,50.92
2019-03-25T01:37:21.927Z,51.42
2019-03-25T01:39:51.472Z,52.02
2019-03-25T01:42:21.097Z,52.44
2019-03-25T01:44:50.620Z,53.11
2019-03-25T01:47:20.212Z,53.30
2019-03-25T01:49:49.779Z,53.86
2019-03-25T01:52:19.237Z,54.31
2019-03-25T01:54:48.865Z,54.32
2019-03-25T01:57:18.355Z,53.83
2019-03-25T01:59:47.833Z,53.90
2019-03-25T02:02:17.290Z,54.15
2019-03-25T02:04:46.751Z,54.62
2019-03-25T02:07:16.242Z,54.68
2019-03-25T02:09:45.876Z,54.81
2019-03-25T02:12:15.390Z,55.03
2019-03-25T02:14:45.013Z,55.14
2019-03-25T02:17:14.646Z,55.48
2019-03-25T02:19:44.090Z,55.80
2019-03-25T02:22:13.571Z,55.68
2019-03-25T02:24:43.443Z,56.02
2019-03-25T02:27:33.637Z,56.16
2019-03-25T02:30:06.250Z,56.16
2019-03-25T02:32:35.792Z,56.18
2019-03-25T02:35:06.392Z,56.00
2019-03-25T02:37:35.893Z,56.29
2019-03-25T02:40:07.202Z,56.14
2019-03-25T02:42:36.656Z,56.61
2019-03-25T02:45:07.850Z,56.71
2019-03-25T02:47:56.726Z,56.89
2019-03-25T02:50:26.171Z,56.89
2019-03-25T02:52:55.633Z,57.45
2019-03-25T02:55:40.145Z,57.80
2019-03-25T02:57:56.384Z,58.00
2019-03-25T03:00:28.995Z,58.06
2019-03-25T03:02:58.452Z,57.99
2019-03-25T03:05:27.917Z,57.85
2019-03-25T03:07:57.455Z,57.51
2019-03-25T03:10:26.917Z,57.35
2019-03-25T03:12:56.462Z,57.01
2019-03-25T03:15:46.777Z,57.11
2019-03-25T03:18:16.960Z,57.08
2019-03-25T03:20:46.409Z,56.78
2019-03-25T03:23:15.951Z,56.71
2019-03-25T03:25:56.960Z,56.91
2019-03-25T03:28:16.662Z,57.02
2019-03-25T03:30:46.210Z,57.11
2019-03-25T03:33:15.677Z,56.96
2019-03-25T03:35:46.668Z,57.15
2019-03-25T03:38:16.267Z,57.15
2019-03-25T03:40:47.484Z,57.40
2019-03-25T03:43:16.957Z,57.54
2019-03-25T03:45:46.552Z,57.19
2019-03-25T03:48:16.015Z,57.34
2019-03-25T03:50:45.453Z,57.37
2019-03-25T03:53:15.365Z,57.49
2019-03-25T03:55:45.107Z,57.53
2019-03-25T03:58:14.801Z,57.59
2019-03-25T04:00:44.256Z,57.29
2019-03-25T04:03:14.065Z,57.23
2019-03-25T04:05:43.620Z,57.37
2019-03-25T04:08:13.293Z,57.78
2019-03-25T04:10:44.832Z,58.58
2019-03-25T04:13:14.515Z,58.95
2019-03-25T04:15:44.195Z,58.98
2019-03-25T04:18:13.710Z,58.84
2019-03-25T04:20:43.261Z,58.93
2019-03-25T04:23:13.229Z,59.18
2019-03-25T04:25:42.786Z,59.32
2019-03-25T04:28:12.454Z,59.50
2019-03-25T04:30:42.229Z,59.64
2019-03-25T04:33:11.819Z,59.85
2019-03-25T04:35:41.425Z,60.29
2019-03-25T04:38:11.445Z,60.24
2019-03-25T04:40:41.696Z,60.54
2019-03-25T04:43:11.675Z,60.83
2019-03-25T04:45:41.272Z,61.29
2019-03-25T04:48:10.820Z,61.19
2019-03-25T04:50:41.874Z,61.18
2019-03-25T04:53:11.669Z,61.27
2019-03-25T04:55:41.306Z,61.61
2019-03-25T04:58:10.994Z,61.51
2019-03-25T05:00:40.725Z,61.54
2019-03-25T05:03:10.402Z,61.56
2019-03-25T05:05:40.113Z,61.37
2019-03-25T05:08:10.034Z,61.30
2019-03-25T05:10:39.700Z,61.54
2019-03-25T05:13:09.542Z,61.75
2019-03-25T05:15:38.947Z,61.30
2019-03-25T05:18:08.743Z,60.80
2019-03-25T05:20:37.996Z,60.52
2019-03-25T05:23:07.494Z,60.64
2019-03-25T05:25:37.094Z,60.57
2019-03-25T05:28:06.768Z,60.45
2019-03-25T05:30:36.300Z,59.95
2019-03-25T05:33:05.859Z,59.63
2019-03-25T05:35:35.335Z,60.01
2019-03-25T05:38:04.878Z,60.07
2019-03-25T05:40:34.346Z,59.99
2019-03-25T05:43:03.693Z,59.73
2019-03-25T05:45:33.290Z,59.66
2019-03-25T05:48:02.786Z,59.13
2019-03-25T05:50:32.236Z,59.04
2019-03-25T05:53:01.719Z,59.17
2019-03-25T05:55:31.402Z,59.11
2019-03-25T05:58:00.943Z,58.93
2019-03-25T06:00:32.178Z,59.41
2019-03-25T06:03:01.724Z,59.07
2019-03-25T06:05:31.127Z,59.04
2019-03-25T06:08:00.737Z,59.22
2019-03-25T06:10:32.995Z,59.35
2019-03-25T06:13:02.471Z,59.40
2019-03-25T06:15:32.118Z,59.19
2019-03-25T06:18:01.711Z,58.82
2019-03-25T06:20:31.316Z,58.22
2019-03-25T06:23:00.966Z,58.71
2019-03-25T06:25:30.601Z,58.76
2019-03-25T06:28:02.338Z,58.64
2019-03-25T06:30:31.929Z,58.48
2019-03-25T06:33:12.020Z,58.69
2019-03-25T06:35:32.947Z,58.55
2019-03-25T06:38:02.487Z,58.40
2019-03-25T06:40:32.007Z,58.49
2019-03-25T06:43:01.600Z,57.86
2019-03-25T06:45:31.180Z,57.26
2019-03-25T06:48:00.175Z,56.59
2019-03-25T06:50:29.866Z,56.61
2019-03-25T06:52:59.685Z,56.62
2019-03-25T06:55:29.293Z,57.61
2019-03-25T06:57:58.761Z,57.94
2019-03-25T07:00:28.324Z,58.12
2019-03-25T07:02:57.829Z,58.33
2019-03-25T07:05:27.311Z,57.53
2019-03-25T07:07:56.839Z,56.92
2019-03-25T07:10:29.514Z,56.58
2019-03-25T07:12:59.512Z,55.91
2019-03-25T07:15:29.421Z,56.46
2019-03-25T07:18:00.437Z,56.23
2019-03-25T07:20:50.732Z,56.08
2019-03-25T07:23:20.332Z,56.42
2019-03-25T07:25:51.654Z,56.28
2019-03-25T07:28:21.347Z,55.33
2019-03-25T07:30:51.035Z,53.62
2019-03-25T07:33:21.478Z,52.51
2019-03-25T07:35:51.019Z,52.66
2019-03-25T07:38:20.643Z,54.48
2019-03-25T07:40:50.237Z,56.51
2019-03-25T07:43:19.692Z,57.47
2019-03-25T07:45:49.156Z,58.51
2019-03-25T07:48:18.675Z,59.60
2019-03-25T07:50:48.234Z,59.94
2019-03-25T07:53:17.811Z,60.57
2019-03-25T07:55:47.256Z,60.81
2019-03-25T07:58:16.733Z,60.96
2019-03-25T08:00:46.771Z,60.82
2019-03-25T08:03:16.316Z,61.87
2019-03-25T08:05:45.929Z,61.72
2019-03-25T08:08:15.553Z,62.76
2019-03-25T08:10:46.801Z,62.68
2019-03-25T08:13:16.340Z,62.24
2019-03-25T08:15:48.455Z,62.32
2019-03-25T08:18:18.252Z,61.90
2019-03-25T08:20:47.774Z,61.23
2019-03-25T08:23:17.495Z,59.34
2019-03-25T08:25:47.053Z,55.15
2019-03-25T08:28:35.814Z,52.90
2019-03-25T08:31:05.381Z,52.25
2019-03-25T08:33:34.827Z,51.59
2019-03-25T08:36:04.388Z,52.31
2019-03-25T08:38:33.963Z,51.74
2019-03-25T08:41:03.585Z,49.15
2019-03-25T08:43:33.056Z,47.93
2019-03-25T08:46:02.498Z,46.70
2019-03-25T08:48:32.145Z,47.51
2019-03-25T08:51:01.776Z,48.63
2019-03-25T08:53:31.311Z,48.84
2019-03-25T08:56:00.559Z,49.97
2019-03-25T08:58:30.195Z,50.53
2019-03-25T09:00:59.616Z,51.30
2019-03-25T09:03:29.094Z,51.80
2019-03-25T09:05:59.590Z,51.75
2019-03-25T09:08:29.273Z,52.84
2019-03-25T09:10:58.786Z,53.06
2019-03-25T09:13:28.444Z,54.35
2019-03-25T09:15:58.150Z,54.01
2019-03-25T09:18:27.614Z,54.36
2019-03-25T09:20:57.070Z,54.91
2019-03-25T09:23:26.554Z,55.23
2019-03-25T09:25:56.456Z,55.08
2019-03-25T09:28:26.567Z,53.68
2019-03-25T09:30:58.427Z,52.05
2019-03-25T09:33:28.048Z,50.73
2019-03-25T09:35:57.629Z,48.71
2019-03-25T09:38:27.166Z,49.18
2019-03-25T09:40:56.690Z,49.44
2019-03-25T09:43:26.144Z,50.43
2019-03-25T09:45:55.681Z,49.75
2019-03-25T09:48:25.242Z,50.11
2019-03-25T09:50:54.777Z,51.03
2019-03-25T09:53:24.239Z,50.14
2019-03-25T09:55:53.834Z,50.20
2019-03-25T09:58:35.344Z,49.16
2019-03-25T10:00:55.002Z,48.29
2019-03-25T10:06:04.712Z,47.97
2019-03-25T10:08:34.289Z,47.33
2019-03-25T10:11:03.995Z,46.88
2019-03-25T10:13:33.636Z,46.77
2019-03-25T10:16:03.161Z,45.82
2019-03-25T10:18:32.894Z,44.84
2019-03-25T10:21:02.421Z,44.07
2019-03-25T10:23:32.048Z,44.62
2019-03-25T10:26:01.631Z,46.05
2019-03-25T10:28:31.275Z,47.03
2019-03-25T10:31:00.824Z,47.87
2019-03-25T10:33:30.411Z,48.00
2019-03-25T10:35:59.971Z,48.91
2019-03-25T11:02:45.911Z,57.18
2019-03-25T11:05:17.130Z,56.16
2019-03-25T11:07:46.903Z,56.43
2019-03-25T11:10:16.946Z,55.55
2019-03-25T11:12:46.771Z,53.86
2019-03-25T11:15:16.570Z,53.34
2019-03-25T11:17:46.199Z,53.23
2019-03-25T11:20:16.833Z,53.95
2019-03-25T11:22:46.297Z,54.62
2019-03-25T11:25:16.116Z,55.53
2019-03-25T11:27:54.111Z,56.89
2019-03-25T11:30:19.876Z,56.93
2019-03-25T11:32:49.498Z,58.31
2019-03-25T11:35:19.094Z,58.44
2019-03-25T11:37:48.674Z,58.75
2019-03-25T11:40:17.977Z,60.29
2019-03-25T11:42:47.429Z,59.88
2019-03-25T11:45:17.442Z,58.72
2019-03-25T11:47:46.931Z,58.55
2019-03-25T11:50:16.528Z,58.96
2019-03-25T11:52:46.056Z,58.11
2019-03-25T11:55:17.718Z,57.74
2019-03-25T11:57:46.811Z,57.22
2019-03-25T12:00:16.443Z,55.40
2019-03-25T12:02:46.009Z,55.23
2019-03-25T12:05:17.695Z,55.13
2019-03-25T12:07:47.924Z,56.64
2019-03-25T12:10:17.744Z,55.21
2019-03-25T12:12:47.654Z,54.43
2019-03-25T12:15:17.291Z,55.25
2019-03-25T12:17:46.834Z,55.08
2019-03-25T12:20:16.439Z,55.23
2019-03-25T12:22:45.910Z,53.78
2019-03-25T12:25:15.441Z,53.86
2019-03-25T12:27:44.992Z,53.36
2019-03-25T12:30:14.882Z,52.65
2019-03-25T12:32:44.092Z,52.53
2019-03-25T12:35:13.820Z,53.28
2019-03-25T12:37:43.264Z,51.71
2019-03-25T12:40:12.802Z,50.60
2019-03-25T12:42:42.181Z,50.92
2019-03-25T12:45:12.268Z,51.13
2019-03-25T12:47:41.906Z,51.84
2019-03-25T12:50:12.395Z,51.58
2019-03-25T12:52:42.100Z,51.16
2019-03-25T12:55:13.367Z,50.19
2019-03-25T12:57:42.966Z,48.75
2019-03-25T13:00:12.772Z,48.20
2019-03-25T13:02:42.372Z,47.50
2019-03-25T13:05:12.191Z,47.22
2019-03-25T13:07:41.826Z,46.77
2019-03-25T13:10:11.882Z,46.44
2019-03-25T13:12:43.779Z,47.92
2019-03-25T13:15:13.484Z,47.54
2019-03-25T13:17:43.084Z,48.63
2019-03-25T13:20:13.190Z,50.99
2019-03-25T13:22:42.820Z,52.45
2019-03-25T13:25:12.437Z,56.73
2019-03-25T13:27:41.976Z,58.97
2019-03-25T13:30:12.287Z,59.35
2019-03-25T13:32:41.481Z,58.89
2019-03-25T13:35:11.401Z,58.35
2019-03-25T13:37:40.962Z,57.54
2019-03-25T13:40:11.148Z,57.16
2019-03-25T13:42:40.761Z,56.38
2019-03-25T13:45:10.618Z,55.71
2019-03-25T13:47:40.141Z,54.94
2019-03-25T13:50:10.801Z,55.12
2019-03-25T13:52:40.426Z,54.27
2019-03-25T13:55:10.038Z,53.54
2019-03-25T13:57:39.504Z,52.47
2019-03-25T14:00:09.781Z,51.94
2019-03-25T14:02:39.410Z,52.46
2019-03-25T14:05:09.087Z,53.12
2019-03-25T14:07:38.637Z,53.27
2019-03-25T14:10:09.609Z,53.78
2019-03-25T14:12:39.155Z,53.11
2019-03-25T14:15:08.839Z,52.89
2019-03-25T14:17:37.860Z,51.46
2019-03-25T14:20:08.344Z,51.17
2019-03-25T14:22:37.957Z,48.83
2019-03-25T14:25:08.053Z,48.92
2019-03-25T14:27:37.486Z,49.21
2019-03-25T14:30:14.299Z,49.99
2019-03-25T14:32:39.549Z,50.55
2019-03-25T14:35:09.726Z,50.34
2019-03-25T14:37:40.748Z,49.49
2019-03-25T14:40:10.569Z,49.59
2019-03-25T14:42:40.955Z,49.72
2019-03-25T14:45:10.470Z,49.49
2019-03-25T14:47:40.149Z,48.48
2019-03-25T14:50:10.401Z,48.05
2019-03-25T14:52:39.837Z,47.07
2019-03-25T14:55:10.078Z,46.99
2019-03-25T14:57:39.548Z,46.59
2019-03-25T15:00:11.142Z,46.54
2019-03-25T15:02:40.769Z,46.80
2019-03-25T15:05:10.668Z,47.48
2019-03-25T15:07:40.214Z,47.01
2019-03-25T15:10:10.137Z,48.56
2019-03-25T15:12:39.687Z,49.02
2019-03-25T15:15:11.037Z,49.92
2019-03-25T15:17:40.629Z,51.00
2019-03-25T15:20:10.958Z,51.94
2019-03-25T15:22:40.539Z,52.31
2019-03-25T15:25:11.037Z,51.93
2019-03-25T15:27:40.729Z,50.97
2019-03-25T15:30:11.182Z,50.01
2019-03-25T15:32:40.684Z,49.38
2019-03-25T15:35:12.192Z,49.73
2019-03-25T15:37:41.995Z,49.94
2019-03-25T15:40:13.443Z,48.79
2019-03-25T15:42:42.998Z,49.33
2019-03-25T15:45:13.104Z,49.71
2019-03-25T15:47:46.929Z,50.00
2019-03-25T15:50:14.425Z,50.13
2019-03-25T15:52:44.067Z,50.33
2019-03-25T15:55:14.190Z,50.66
2019-03-25T15:57:43.991Z,51.14
2019-03-25T16:00:17.563Z,50.78
2019-03-25T16:02:47.272Z,51.14
2019-03-25T16:05:16.956Z,50.80
2019-03-25T16:07:46.862Z,50.69
2019-03-25T16:10:17.433Z,50.76
2019-03-25T16:12:47.294Z,50.71
2019-03-25T16:15:19.922Z,51.09
2019-03-25T16:17:49.397Z,50.96
2019-03-25T16:20:18.734Z,51.49
2019-03-25T16:22:48.103Z,51.49
2019-03-25T16:25:21.355Z,51.94
2019-03-25T16:27:50.959Z,51.75
2019-03-25T16:30:20.193Z,52.53
2019-03-25T16:32:49.783Z,52.29
2019-03-25T16:35:19.245Z,52.65
2019-03-25T16:37:48.691Z,52.52
2019-03-25T16:40:18.279Z,52.47
2019-03-25T16:42:47.918Z,52.43
2019-03-25T16:45:17.428Z,52.60
2019-03-25T16:47:47.125Z,54.31
2019-03-25T16:50:17.129Z,55.69
2019-03-25T16:52:46.741Z,57.17
2019-03-25T16:55:16.296Z,58.48
2019-03-25T16:57:45.800Z,59.14
2019-03-25T17:00:26.592Z,59.12
2019-03-25T17:02:46.967Z,59.81
2019-03-25T17:05:16.553Z,59.42
2019-03-25T17:07:46.225Z,59.85
2019-03-25T17:10:15.848Z,59.91
2019-03-25T17:12:45.408Z,59.84
2019-03-25T17:15:15.181Z,58.47
2019-03-25T17:17:44.617Z,59.60
2019-03-25T17:20:14.807Z,60.13
2019-03-25T17:22:44.266Z,58.27
2019-03-25T17:25:14.104Z,58.89
2019-03-25T17:27:43.653Z,58.96
2019-03-25T17:30:15.657Z,59.29
2019-03-25T17:32:45.237Z,60.83
2019-03-25T17:35:14.904Z,60.59
2019-03-25T17:37:44.490Z,61.48
2019-03-25T17:40:14.394Z,61.69
2019-03-25T17:42:43.859Z,62.04
2019-03-25T17:45:14.037Z,63.87
2019-03-25T17:47:43.708Z,64.37
2019-03-25T17:50:13.933Z,63.44
2019-03-25T17:52:43.251Z,63.78
2019-03-25T17:55:13.175Z,64.43
2019-03-25T17:57:42.694Z,64.34
2019-03-25T18:00:13.217Z,64.17
2019-03-25T18:02:42.674Z,64.96
2019-03-25T18:05:12.302Z,64.84
2019-03-25T18:07:44.135Z,63.85
2019-03-25T18:10:13.859Z,63.69
2019-03-25T18:12:43.331Z,63.08
2019-03-25T18:15:13.343Z,62.96
2019-03-25T18:17:42.777Z,63.46
2019-03-25T18:20:18.724Z,63.59
2019-03-25T18:22:43.954Z,63.56
2019-03-25T18:25:13.690Z,63.85
2019-03-25T18:27:43.236Z,63.39
2019-03-25T18:30:13.239Z,63.79
2019-03-25T18:32:42.698Z,63.42
2019-03-25T18:35:15.374Z,63.07
2019-03-25T18:37:44.888Z,63.26
2019-03-25T18:40:14.645Z,63.06
2019-03-25T18:42:44.233Z,63.30
2019-03-25T18:45:13.887Z,63.39
2019-03-25T18:47:43.439Z,63.44
2019-03-25T18:50:13.130Z,63.52
2019-03-25T18:52:42.811Z,63.92
2019-03-25T18:55:12.758Z,64.06
2019-03-25T18:57:42.362Z,63.97
2019-03-25T19:00:15.004Z,64.19
2019-03-25T19:02:44.616Z,64.36
2019-03-25T19:05:14.206Z,63.70
2019-03-25T19:07:46.000Z,63.86
2019-03-25T19:10:18.628Z,63.42
2019-03-25T19:12:48.193Z,64.02
2019-03-25T19:15:17.670Z,64.05
2019-03-25T19:17:47.404Z,64.09
2019-03-25T19:20:16.947Z,63.78
2019-03-25T19:22:46.487Z,63.25
2019-03-25T19:25:16.111Z,62.95
2019-03-25T19:27:45.762Z,62.84
2019-03-25T19:30:15.482Z,62.98
2019-03-25T19:32:44.985Z,62.57
2019-03-25T19:35:14.849Z,63.10
2019-03-25T19:37:44.507Z,63.61
2019-03-25T19:40:14.173Z,63.84
2019-03-25T19:42:43.630Z,63.99
2019-03-25T19:45:13.665Z,63.60
2019-03-25T19:47:43.733Z,63.19
2019-03-25T19:50:14.150Z,63.09
2019-03-25T19:52:43.441Z,62.84
2019-03-25T19:55:13.405Z,62.54
2019-03-25T19:57:42.809Z,62.71
2019-03-25T20:00:13.679Z,62.33
2019-03-25T20:02:43.400Z,63.16
2019-03-25T20:05:13.011Z,62.80
2019-03-25T20:07:43.054Z,62.93
2019-03-25T20:10:15.721Z,62.98
2019-03-25T20:12:45.127Z,62.25
2019-03-25T20:15:16.445Z,62.09
2019-03-25T20:17:45.890Z,61.90
2019-03-25T20:20:15.808Z,62.26
2019-03-25T20:22:45.357Z,62.25
2019-03-25T20:25:14.798Z,61.76
2019-03-25T20:27:44.197Z,61.71
2019-03-25T20:30:13.844Z,61.69
2019-03-25T20:32:43.451Z,61.76
2019-03-25T20:35:13.127Z,61.46
2019-03-25T20:37:42.629Z,61.89
2019-03-25T20:40:12.412Z,61.94
2019-03-25T20:42:41.886Z,62.19
2019-03-25T20:45:13.119Z,62.64
2019-03-25T20:47:42.591Z,62.94
2019-03-25T20:50:12.378Z,63.14
2019-03-25T20:52:41.965Z,63.57
2019-03-25T20:55:11.656Z,63.83
2019-03-25T20:57:41.477Z,64.14
2019-03-25T21:00:12.084Z,63.93
2019-03-25T21:02:45.304Z,63.52
2019-03-25T21:05:13.333Z,63.47
2019-03-25T21:07:42.840Z,63.67
2019-03-25T21:10:12.653Z,63.75
2019-03-25T21:12:42.144Z,63.57
2019-03-25T21:15:12.035Z,63.35
2019-03-25T21:17:41.525Z,63.55
2019-03-25T21:20:11.327Z,63.81
2019-03-25T21:22:40.806Z,63.99
2019-03-25T21:25:10.559Z,63.96
2019-03-25T21:27:40.039Z,63.84
2019-03-25T21:30:09.964Z,63.67
2019-03-25T21:32:39.539Z,63.76
2019-03-25T21:35:09.341Z,63.67
2019-03-25T21:37:38.767Z,63.50
2019-03-25T21:40:09.102Z,63.40
2019-03-25T21:42:38.586Z,63.32
2019-03-25T21:45:08.596Z,63.13
2019-03-25T21:47:38.037Z,63.37
2019-03-25T21:50:08.535Z,63.23
2019-03-25T21:52:38.059Z,63.29
2019-03-25T21:55:07.749Z,63.14
2019-03-25T21:57:37.264Z,63.42
2019-03-25T22:00:08.556Z,63.66
2019-03-25T22:02:38.019Z,63.79
2019-03-25T22:05:07.326Z,63.52
2019-03-25T22:07:36.799Z,63.58
2019-03-25T22:10:06.880Z,63.29
2019-03-25T22:12:36.426Z,63.05
2019-03-25T22:15:09.014Z,63.10
2019-03-25T22:17:39.630Z,63.16
2019-03-25T22:20:10.726Z,63.00
2019-03-25T22:22:40.237Z,62.84
2019-03-25T22:25:10.511Z,62.73
2019-03-25T22:27:40.050Z,62.75
2019-03-25T22:30:10.707Z,62.80
2019-03-25T22:32:40.179Z,62.33
2019-03-25T22:35:09.744Z,62.61
2019-03-25T22:37:39.340Z,62.37
2019-03-25T22:40:09.131Z,62.03
2019-03-25T22:42:38.702Z,61.95
2019-03-25T22:45:08.452Z,62.16
2019-03-25T22:47:38.060Z,62.18
2019-03-25T22:50:10.149Z,61.98
2019-03-25T22:52:39.617Z,62.14
2019-03-25T22:55:09.301Z,61.86
2019-03-25T22:57:38.813Z,62.26
2019-03-25T23:00:08.825Z,61.95
2019-03-25T23:02:38.319Z,62.69
2019-03-25T23:05:08.306Z,62.41
2019-03-25T23:07:37.842Z,62.61
2019-03-25T23:10:07.689Z,62.60
2019-03-25T23:12:37.230Z,63.04
2019-03-25T23:15:07.007Z,62.85
2019-03-25T23:17:36.625Z,62.42
2019-03-25T23:20:06.609Z,62.79
2019-03-25T23:22:36.222Z,62.40
2019-03-25T23:25:07.007Z,62.93
2019-03-25T23:27:36.712Z,62.91
2019-03-25T23:30:07.219Z,62.82
2019-03-25T23:32:36.840Z,63.32
2019-03-25T23:35:07.017Z,63.05
2019-03-25T23:37:36.636Z,62.73
2019-03-25T23:40:07.142Z,62.82
2019-03-25T23:42:36.519Z,63.06
2019-03-25T23:45:07.640Z,63.03
2019-03-25T23:47:37.217Z,63.03
2019-03-25T23:50:07.123Z,63.11
2019-03-25T23:52:36.641Z,62.83
2019-03-25T23:55:06.902Z,63.46
2019-03-25T23:57:36.537Z,63.37
